Terminal Aerodrome Forecast
Issued by NWS

Home | Current Version | Previous Version | Graphics & Text | Print | Product List | Glossary On
Versions: 1 2 3 4 5 6 7 8 9 10 11 12 13 14 15
000
FTUS43 KICT 230500
TAFHUT
TAF
KHUT 230520Z 2306/2406 15012KT P6SM FEW250
     FM231500 17020G28KT P6SM SCT120
     FM231900 19026G35KT P6SM SCT120
     FM240100 17022G30KT P6SM SCT060=

USA.gov is the U.S. government's official web portal to all federal, state and local government web resources and services.